sensor_id;sensor_type;location;lat;lon;timestamp;P1;durP1;ratioP1;P2;durP2;ratioP2
76393;SDS011;65216;51.090;-115.352;2024-01-25T00:00:57;9.80;;;1.30;;
76393;SDS011;65216;51.090;-115.352;2024-01-25T00:03:24;18.80;;;1.80;;
76393;SDS011;65216;51.090;-115.352;2024-01-25T00:05:51;10.00;;;1.30;;
76393;SDS011;65216;51.090;-115.352;2024-01-25T00:08:18;13.40;;;1.60;;
76393;SDS011;65216;51.090;-115.352;2024-01-25T00:10:47;17.20;;;2.20;;
76393;SDS011;65216;51.090;-115.352;2024-01-25T00:13:13;15.50;;;1.60;;
76393;SDS011;65216;51.090;-115.352;2024-01-25T00:15:42;15.80;;;2.20;;
76393;SDS011;65216;51.090;-115.352;2024-01-25T00:18:09;19.00;;;1.50;;
76393;SDS011;65216;51.090;-115.352;2024-01-25T00:20:36;14.30;;;1.30;;
76393;SDS011;65216;51.090;-115.352;2024-01-25T00:23:04;14.90;;;1.50;;
76393;SDS011;65216;51.090;-115.352;2024-01-25T00:25:32;28.30;;;2.10;;
76393;SDS011;65216;51.090;-115.352;2024-01-25T00:27:59;16.00;;;1.50;;
76393;SDS011;65216;51.090;-115.352;2024-01-25T00:33:41;18.90;;;1.50;;
76393;SDS011;65216;51.090;-115.352;2024-01-25T00:36:11;11.50;;;1.30;;
76393;SDS011;65216;51.090;-115.352;2024-01-25T00:42:22;15.50;;;1.20;;
76393;SDS011;65216;51.090;-115.352;2024-01-25T00:45:24;14.60;;;1.70;;
76393;SDS011;65216;51.090;-115.352;2024-01-25T00:47:51;12.20;;;1.30;;
76393;SDS011;65216;51.090;-115.352;2024-01-25T00:50:19;13.50;;;1.70;;
76393;SDS011;65216;51.090;-115.352;2024-01-25T00:56:33;21.00;;;2.30;;
76393;SDS011;65216;51.090;-115.352;2024-01-25T00:59:00;16.00;;;1.40;;
76393;SDS011;65216;51.090;-115.352;2024-01-25T01:01:27;18.30;;;2.30;;
76393;SDS011;65216;51.090;-115.352;2024-01-25T01:04:22;19.80;;;2.00;;
76393;SDS011;65216;51.090;-115.352;2024-01-25T01:06:50;18.30;;;2.20;;
76393;SDS011;65216;51.090;-115.352;2024-01-25T01:09:17;23.10;;;1.90;;
76393;SDS011;65216;51.090;-115.352;2024-01-25T01:11:44;16.50;;;1.80;;
76393;SDS011;65216;51.090;-115.352;2024-01-25T01:14:11;16.50;;;2.00;;
76393;SDS011;65216;51.090;-115.352;2024-01-25T01:16:39;18.50;;;1.90;;
76393;SDS011;65216;51.090;-115.352;2024-01-25T01:19:05;17.50;;;1.90;;
76393;SDS011;65216;51.090;-115.352;2024-01-25T01:21:37;16.70;;;2.10;;
76393;SDS011;65216;51.090;-115.352;2024-01-25T01:24:04;21.60;;;1.90;;
76393;SDS011;65216;51.090;-115.352;2024-01-25T01:26:34;14.80;;;1.70;;
76393;SDS011;65216;51.090;-115.352;2024-01-25T01:29:01;12.70;;;1.60;;
76393;SDS011;65216;51.090;-115.352;2024-01-25T01:31:28;25.00;;;2.10;;
76393;SDS011;65216;51.090;-115.352;2024-01-25T01:33:54;25.90;;;2.60;;
76393;SDS011;65216;51.090;-115.352;2024-01-25T01:36:21;18.20;;;2.00;;
76393;SDS011;65216;51.090;-115.352;2024-01-25T01:38:50;12.80;;;1.70;;
76393;SDS011;65216;51.090;-115.352;2024-01-25T01:41:18;21.00;;;2.20;;
76393;SDS011;65216;51.090;-115.352;2024-01-25T01:43:45;18.50;;;1.90;;
76393;SDS011;65216;51.090;-115.352;2024-01-25T01:46:20;20.50;;;2.10;;
76393;SDS011;65216;51.090;-115.352;2024-01-25T01:48:53;16.10;;;2.20;;
76393;SDS011;65216;51.090;-115.352;2024-01-25T01:51:20;23.20;;;2.30;;
76393;SDS011;65216;51.090;-115.352;2024-01-25T01:53:47;18.80;;;2.30;;
76393;SDS011;65216;51.090;-115.352;2024-01-25T01:56:15;20.80;;;2.20;;
76393;SDS011;65216;51.090;-115.352;2024-01-25T01:58:43;23.20;;;4.00;;
76393;SDS011;65216;51.090;-115.352;2024-01-25T02:01:13;18.50;;;2.30;;
76393;SDS011;65216;51.090;-115.352;2024-01-25T02:03:40;20.20;;;2.20;;
76393;SDS011;65216;51.090;-115.352;2024-01-25T02:06:07;20.20;;;1.70;;
76393;SDS011;65216;51.090;-115.352;2024-01-25T02:08:34;19.20;;;1.90;;
76393;SDS011;65216;51.090;-115.352;2024-01-25T02:11:02;17.70;;;1.80;;
76393;SDS011;65216;51.090;-115.352;2024-01-25T02:13:29;21.20;;;2.70;;
76393;SDS011;65216;51.090;-115.352;2024-01-25T02:15:56;17.30;;;2.10;;
76393;SDS011;65216;51.090;-115.352;2024-01-25T02:18:26;27.60;;;2.40;;
76393;SDS011;65216;51.090;-115.352;2024-01-25T02:20:53;21.40;;;1.90;;
76393;SDS011;65216;51.090;-115.352;2024-01-25T02:23:20;18.20;;;1.90;;
76393;SDS011;65216;51.090;-115.352;2024-01-25T02:25:46;18.10;;;2.00;;
76393;SDS011;65216;51.090;-115.352;2024-01-25T02:28:13;18.10;;;1.50;;
76393;SDS011;65216;51.090;-115.352;2024-01-25T02:30:40;15.30;;;1.70;;
76393;SDS011;65216;51.090;-115.352;2024-01-25T02:33:07;18.90;;;1.80;;
76393;SDS011;65216;51.090;-115.352;2024-01-25T02:35:33;20.50;;;2.10;;
76393;SDS011;65216;51.090;-115.352;2024-01-25T02:38:00;20.30;;;2.00;;
76393;SDS011;65216;51.090;-115.352;2024-01-25T02:40:27;16.10;;;2.00;;
76393;SDS011;65216;51.090;-115.352;2024-01-25T02:42:54;17.20;;;1.70;;
76393;SDS011;65216;51.090;-115.352;2024-01-25T02:45:23;20.90;;;2.40;;
76393;SDS011;65216;51.090;-115.352;2024-01-25T02:47:52;20.70;;;2.10;;
76393;SDS011;65216;51.090;-115.352;2024-01-25T02:50:19;12.30;;;2.70;;
76393;SDS011;65216;51.090;-115.352;2024-01-25T02:52:46;24.50;;;2.10;;
76393;SDS011;65216;51.090;-115.352;2024-01-25T02:55:18;17.50;;;2.20;;
76393;SDS011;65216;51.090;-115.352;2024-01-25T02:57:45;19.60;;;2.00;;
76393;SDS011;65216;51.090;-115.352;2024-01-25T03:00:15;24.70;;;2.00;;
76393;SDS011;65216;51.090;-115.352;2024-01-25T03:02:42;22.20;;;2.30;;
76393;SDS011;65216;51.090;-115.352;2024-01-25T03:05:10;18.80;;;1.80;;
76393;SDS011;65216;51.090;-115.352;2024-01-25T03:07:37;14.20;;;1.90;;
76393;SDS011;65216;51.090;-115.352;2024-01-25T03:10:04;16.90;;;2.10;;
76393;SDS011;65216;51.090;-115.352;2024-01-25T03:12:31;18.10;;;1.90;;
76393;SDS011;65216;51.090;-115.352;2024-01-25T03:15:01;22.80;;;2.00;;
76393;SDS011;65216;51.090;-115.352;2024-01-25T03:17:29;23.30;;;2.10;;
76393;SDS011;65216;51.090;-115.352;2024-01-25T03:19:56;17.50;;;2.20;;
76393;SDS011;65216;51.090;-115.352;2024-01-25T03:22:25;22.80;;;1.80;;
76393;SDS011;65216;51.090;-115.352;2024-01-25T03:24:52;14.50;;;1.60;;
76393;SDS011;65216;51.090;-115.352;2024-01-25T03:27:19;11.70;;;1.30;;
76393;SDS011;65216;51.090;-115.352;2024-01-25T03:29:46;16.00;;;1.90;;
76393;SDS011;65216;51.090;-115.352;2024-01-25T03:32:14;20.50;;;1.90;;
76393;SDS011;65216;51.090;-115.352;2024-01-25T03:34:42;14.00;;;1.90;;
76393;SDS011;65216;51.090;-115.352;2024-01-25T03:37:08;13.40;;;1.70;;
76393;SDS011;65216;51.090;-115.352;2024-01-25T03:39:37;16.10;;;1.70;;
76393;SDS011;65216;51.090;-115.352;2024-01-25T03:42:04;19.00;;;1.50;;
76393;SDS011;65216;51.090;-115.352;2024-01-25T03:44:31;16.70;;;1.90;;
76393;SDS011;65216;51.090;-115.352;2024-01-25T03:46:58;15.20;;;1.90;;
76393;SDS011;65216;51.090;-115.352;2024-01-25T03:49:24;14.80;;;1.40;;
76393;SDS011;65216;51.090;-115.352;2024-01-25T03:51:53;9.20;;;1.30;;
76393;SDS011;65216;51.090;-115.352;2024-01-25T03:54:20;18.00;;;1.60;;
76393;SDS011;65216;51.090;-115.352;2024-01-25T03:56:47;14.90;;;1.50;;
76393;SDS011;65216;51.090;-115.352;2024-01-25T03:59:13;13.50;;;1.40;;
76393;SDS011;65216;51.090;-115.352;2024-01-25T04:01:44;14.10;;;1.50;;
76393;SDS011;65216;51.090;-115.352;2024-01-25T04:04:13;14.90;;;2.00;;
76393;SDS011;65216;51.090;-115.352;2024-01-25T04:06:45;14.60;;;1.40;;
76393;SDS011;65216;51.090;-115.352;2024-01-25T04:09:13;13.70;;;1.40;;
76393;SDS011;65216;51.090;-115.352;2024-01-25T04:11:41;13.10;;;1.40;;
76393;SDS011;65216;51.090;-115.352;2024-01-25T04:14:08;17.00;;;1.60;;
76393;SDS011;65216;51.090;-115.352;2024-01-25T04:16:35;17.20;;;1.40;;
76393;SDS011;65216;51.090;-115.352;2024-01-25T04:19:02;10.00;;;1.40;;
76393;SDS011;65216;51.090;-115.352;2024-01-25T04:21:37;13.80;;;1.30;;
76393;SDS011;65216;51.090;-115.352;2024-01-25T04:24:04;10.50;;;1.20;;
76393;SDS011;65216;51.090;-115.352;2024-01-25T04:26:34;7.90;;;0.90;;
76393;SDS011;65216;51.090;-115.352;2024-01-25T04:29:01;15.00;;;1.60;;
76393;SDS011;65216;51.090;-115.352;2024-01-25T04:31:28;11.70;;;1.40;;
76393;SDS011;65216;51.090;-115.352;2024-01-25T04:33:55;9.60;;;1.10;;
76393;SDS011;65216;51.090;-115.352;2024-01-25T04:36:24;8.20;;;1.30;;
76393;SDS011;65216;51.090;-115.352;2024-01-25T04:38:51;8.40;;;1.00;;
76393;SDS011;65216;51.090;-115.352;2024-01-25T04:41:18;11.30;;;1.10;;
76393;SDS011;65216;51.090;-115.352;2024-01-25T04:43:45;15.90;;;1.20;;
76393;SDS011;65216;51.090;-115.352;2024-01-25T04:46:13;8.90;;;1.10;;
76393;SDS011;65216;51.090;-115.352;2024-01-25T04:48:40;9.30;;;1.10;;
76393;SDS011;65216;51.090;-115.352;2024-01-25T04:51:07;9.60;;;1.00;;
76393;SDS011;65216;51.090;-115.352;2024-01-25T04:53:36;11.70;;;0.90;;
76393;SDS011;65216;51.090;-115.352;2024-01-25T04:56:02;14.20;;;1.00;;
76393;SDS011;65216;51.090;-115.352;2024-01-25T04:58:30;9.30;;;0.80;;
76393;SDS011;65216;51.090;-115.352;2024-01-25T05:00:57;8.90;;;1.40;;
76393;SDS011;65216;51.090;-115.352;2024-01-25T05:03:24;9.80;;;0.90;;
76393;SDS011;65216;51.090;-115.352;2024-01-25T05:05:51;4.30;;;0.60;;
76393;SDS011;65216;51.090;-115.352;2024-01-25T05:08:18;5.40;;;1.00;;
76393;SDS011;65216;51.090;-115.352;2024-01-25T05:11:00;6.20;;;0.70;;
76393;SDS011;65216;51.090;-115.352;2024-01-25T05:13:29;4.50;;;0.70;;
76393;SDS011;65216;51.090;-115.352;2024-01-25T05:15:56;5.30;;;0.70;;
76393;SDS011;65216;51.090;-115.352;2024-01-25T05:18:23;3.30;;;0.50;;
76393;SDS011;65216;51.090;-115.352;2024-01-25T05:20:53;4.40;;;0.50;;
76393;SDS011;65216;51.090;-115.352;2024-01-25T05:23:23;6.50;;;0.60;;
76393;SDS011;65216;51.090;-115.352;2024-01-25T05:25:53;4.70;;;0.40;;
76393;SDS011;65216;51.090;-115.352;2024-01-25T05:28:19;3.50;;;0.50;;
76393;SDS011;65216;51.090;-115.352;2024-01-25T05:30:46;2.00;;;0.40;;
76393;SDS011;65216;51.090;-115.352;2024-01-25T05:33:13;2.10;;;0.40;;
76393;SDS011;65216;51.090;-115.352;2024-01-25T05:35:40;4.30;;;0.40;;
76393;SDS011;65216;51.090;-115.352;2024-01-25T05:38:07;2.90;;;0.40;;
76393;SDS011;65216;51.090;-115.352;2024-01-25T05:40:33;4.70;;;0.60;;
76393;SDS011;65216;51.090;-115.352;2024-01-25T05:43:00;1.20;;;0.30;;
76393;SDS011;65216;51.090;-115.352;2024-01-25T05:45:30;3.30;;;0.50;;
76393;SDS011;65216;51.090;-115.352;2024-01-25T05:47:57;4.60;;;0.50;;
76393;SDS011;65216;51.090;-115.352;2024-01-25T05:50:24;3.30;;;0.40;;
76393;SDS011;65216;51.090;-115.352;2024-01-25T05:52:51;3.60;;;0.40;;
76393;SDS011;65216;51.090;-115.352;2024-01-25T05:55:18;3.20;;;0.50;;
76393;SDS011;65216;51.090;-115.352;2024-01-25T05:57:44;3.10;;;0.40;;
76393;SDS011;65216;51.090;-115.352;2024-01-25T06:00:14;7.60;;;0.70;;
76393;SDS011;65216;51.090;-115.352;2024-01-25T06:02:42;4.90;;;0.80;;
76393;SDS011;65216;51.090;-115.352;2024-01-25T06:05:09;1.50;;;0.20;;
76393;SDS011;65216;51.090;-115.352;2024-01-25T06:07:37;7.90;;;0.80;;
76393;SDS011;65216;51.090;-115.352;2024-01-25T06:10:06;6.90;;;0.60;;
76393;SDS011;65216;51.090;-115.352;2024-01-25T06:12:33;11.50;;;1.00;;
76393;SDS011;65216;51.090;-115.352;2024-01-25T06:15:03;11.20;;;0.70;;
76393;SDS011;65216;51.090;-115.352;2024-01-25T06:17:33;7.20;;;0.70;;
76393;SDS011;65216;51.090;-115.352;2024-01-25T06:20:00;4.50;;;0.40;;
76393;SDS011;65216;51.090;-115.352;2024-01-25T06:22:26;6.10;;;0.50;;
76393;SDS011;65216;51.090;-115.352;2024-01-25T06:24:53;3.50;;;0.40;;
76393;SDS011;65216;51.090;-115.352;2024-01-25T06:27:20;5.10;;;0.40;;
76393;SDS011;65216;51.090;-115.352;2024-01-25T06:29:47;3.10;;;0.30;;
76393;SDS011;65216;51.090;-115.352;2024-01-25T06:32:14;2.90;;;0.30;;
76393;SDS011;65216;51.090;-115.352;2024-01-25T06:34:41;2.20;;;0.30;;
76393;SDS011;65216;51.090;-115.352;2024-01-25T06:37:08;1.40;;;0.30;;
76393;SDS011;65216;51.090;-115.352;2024-01-25T06:39:37;1.60;;;0.30;;
76393;SDS011;65216;51.090;-115.352;2024-01-25T06:42:05;5.40;;;0.50;;
76393;SDS011;65216;51.090;-115.352;2024-01-25T06:44:31;1.60;;;0.30;;
76393;SDS011;65216;51.090;-115.352;2024-01-25T06:46:58;2.90;;;0.40;;
76393;SDS011;65216;51.090;-115.352;2024-01-25T06:49:25;0.80;;;0.30;;
76393;SDS011;65216;51.090;-115.352;2024-01-25T06:51:52;2.10;;;0.50;;
76393;SDS011;65216;51.090;-115.352;2024-01-25T06:54:19;2.80;;;0.20;;
76393;SDS011;65216;51.090;-115.352;2024-01-25T06:56:46;0.90;;;0.30;;
76393;SDS011;65216;51.090;-115.352;2024-01-25T06:59:15;2.40;;;0.20;;
76393;SDS011;65216;51.090;-115.352;2024-01-25T07:01:41;1.80;;;0.20;;
76393;SDS011;65216;51.090;-115.352;2024-01-25T07:04:08;1.50;;;0.40;;
76393;SDS011;65216;51.090;-115.352;2024-01-25T07:06:38;2.40;;;0.30;;
76393;SDS011;65216;51.090;-115.352;2024-01-25T07:09:04;0.90;;;0.20;;
76393;SDS011;65216;51.090;-115.352;2024-01-25T07:11:33;0.80;;;0.20;;
76393;SDS011;65216;51.090;-115.352;2024-01-25T07:13:59;1.40;;;0.50;;
76393;SDS011;65216;51.090;-115.352;2024-01-25T07:16:26;2.40;;;0.50;;
76393;SDS011;65216;51.090;-115.352;2024-01-25T07:18:53;1.40;;;0.30;;
76393;SDS011;65216;51.090;-115.352;2024-01-25T07:21:20;1.90;;;0.50;;
76393;SDS011;65216;51.090;-115.352;2024-01-25T07:23:47;1.10;;;0.20;;
76393;SDS011;65216;51.090;-115.352;2024-01-25T07:26:18;1.30;;;0.40;;
76393;SDS011;65216;51.090;-115.352;2024-01-25T07:28:45;1.90;;;0.30;;
76393;SDS011;65216;51.090;-115.352;2024-01-25T07:31:12;0.80;;;0.40;;
76393;SDS011;65216;51.090;-115.352;2024-01-25T07:33:38;0.50;;;0.20;;
76393;SDS011;65216;51.090;-115.352;2024-01-25T07:36:05;2.00;;;0.40;;
76393;SDS011;65216;51.090;-115.352;2024-01-25T07:38:33;2.90;;;0.30;;
76393;SDS011;65216;51.090;-115.352;2024-01-25T07:41:00;1.90;;;0.30;;
76393;SDS011;65216;51.090;-115.352;2024-01-25T07:43:27;2.30;;;0.50;;
76393;SDS011;65216;51.090;-115.352;2024-01-25T07:45:54;4.00;;;0.70;;
76393;SDS011;65216;51.090;-115.352;2024-01-25T07:48:21;1.10;;;0.20;;
76393;SDS011;65216;51.090;-115.352;2024-01-25T07:50:47;1.60;;;0.30;;
76393;SDS011;65216;51.090;-115.352;2024-01-25T07:53:15;2.20;;;0.40;;
76393;SDS011;65216;51.090;-115.352;2024-01-25T07:55:42;1.40;;;0.20;;
76393;SDS011;65216;51.090;-115.352;2024-01-25T07:58:08;0.90;;;0.20;;
76393;SDS011;65216;51.090;-115.352;2024-01-25T08:00:36;1.00;;;0.30;;
76393;SDS011;65216;51.090;-115.352;2024-01-25T08:03:03;2.10;;;0.30;;
76393;SDS011;65216;51.090;-115.352;2024-01-25T08:05:31;1.90;;;0.40;;
76393;SDS011;65216;51.090;-115.352;2024-01-25T08:07:58;1.80;;;0.30;;
76393;SDS011;65216;51.090;-115.352;2024-01-25T08:10:25;0.50;;;0.10;;
76393;SDS011;65216;51.090;-115.352;2024-01-25T08:12:52;0.70;;;0.10;;
76393;SDS011;65216;51.090;-115.352;2024-01-25T08:15:20;1.10;;;0.30;;
76393;SDS011;65216;51.090;-115.352;2024-01-25T08:17:47;0.50;;;0.10;;
76393;SDS011;65216;51.090;-115.352;2024-01-25T08:20:13;1.20;;;0.40;;
76393;SDS011;65216;51.090;-115.352;2024-01-25T08:22:41;1.90;;;0.20;;
76393;SDS011;65216;51.090;-115.352;2024-01-25T08:25:08;1.00;;;0.20;;
76393;SDS011;65216;51.090;-115.352;2024-01-25T08:27:37;1.30;;;0.10;;
76393;SDS011;65216;51.090;-115.352;2024-01-25T08:30:04;0.70;;;0.10;;
76393;SDS011;65216;51.090;-115.352;2024-01-25T08:32:32;0.20;;;0.00;;
76393;SDS011;65216;51.090;-115.352;2024-01-25T08:34:59;0.80;;;0.20;;
76393;SDS011;65216;51.090;-115.352;2024-01-25T08:37:26;0.40;;;0.20;;
76393;SDS011;65216;51.090;-115.352;2024-01-25T08:39:53;1.10;;;0.10;;
76393;SDS011;65216;51.090;-115.352;2024-01-25T08:42:21;0.30;;;0.10;;
76393;SDS011;65216;51.090;-115.352;2024-01-25T08:44:47;1.30;;;0.20;;
76393;SDS011;65216;51.090;-115.352;2024-01-25T08:47:17;0.40;;;0.20;;
76393;SDS011;65216;51.090;-115.352;2024-01-25T08:49:44;0.20;;;0.20;;
76393;SDS011;65216;51.090;-115.352;2024-01-25T08:52:11;0.50;;;0.20;;
76393;SDS011;65216;51.090;-115.352;2024-01-25T08:54:38;0.70;;;0.20;;
76393;SDS011;65216;51.090;-115.352;2024-01-25T08:57:05;0.10;;;0.00;;
76393;SDS011;65216;51.090;-115.352;2024-01-25T08:59:33;0.50;;;0.10;;
76393;SDS011;65216;51.090;-115.352;2024-01-25T09:02:04;0.60;;;0.10;;
76393;SDS011;65216;51.090;-115.352;2024-01-25T09:04:32;0.10;;;0.10;;
76393;SDS011;65216;51.090;-115.352;2024-01-25T09:06:59;0.40;;;0.20;;
76393;SDS011;65216;51.090;-115.352;2024-01-25T09:09:26;1.40;;;0.10;;
76393;SDS011;65216;51.090;-115.352;2024-01-25T09:11:53;0.90;;;0.00;;
76393;SDS011;65216;51.090;-115.352;2024-01-25T09:14:22;0.80;;;0.10;;
76393;SDS011;65216;51.090;-115.352;2024-01-25T09:16:49;0.00;;;0.00;;
76393;SDS011;65216;51.090;-115.352;2024-01-25T09:19:16;0.00;;;0.00;;
76393;SDS011;65216;51.090;-115.352;2024-01-25T09:21:43;0.20;;;0.10;;
76393;SDS011;65216;51.090;-115.352;2024-01-25T09:24:10;0.00;;;0.00;;
76393;SDS011;65216;51.090;-115.352;2024-01-25T09:26:37;0.90;;;0.10;;
76393;SDS011;65216;51.090;-115.352;2024-01-25T09:29:03;0.10;;;0.00;;
76393;SDS011;65216;51.090;-115.352;2024-01-25T09:31:30;0.10;;;0.10;;
76393;SDS011;65216;51.090;-115.352;2024-01-25T09:34:01;0.20;;;0.20;;
76393;SDS011;65216;51.090;-115.352;2024-01-25T09:36:27;0.00;;;0.00;;
76393;SDS011;65216;51.090;-115.352;2024-01-25T09:38:55;0.00;;;0.00;;
76393;SDS011;65216;51.090;-115.352;2024-01-25T09:41:22;0.50;;;0.00;;
76393;SDS011;65216;51.090;-115.352;2024-01-25T09:43:48;0.00;;;0.00;;
76393;SDS011;65216;51.090;-115.352;2024-01-25T09:46:16;0.10;;;0.00;;
76393;SDS011;65216;51.090;-115.352;2024-01-25T09:48:44;0.20;;;0.00;;
76393;SDS011;65216;51.090;-115.352;2024-01-25T09:51:13;0.00;;;0.00;;
76393;SDS011;65216;51.090;-115.352;2024-01-25T09:53:41;0.00;;;0.00;;
76393;SDS011;65216;51.090;-115.352;2024-01-25T09:56:09;0.00;;;0.00;;
76393;SDS011;65216;51.090;-115.352;2024-01-25T10:01:14;0.20;;;0.00;;
76393;SDS011;65216;51.090;-115.352;2024-01-25T10:03:47;0.40;;;0.00;;
76393;SDS011;65216;51.090;-115.352;2024-01-25T10:06:15;0.00;;;0.00;;
76393;SDS011;65216;51.090;-115.352;2024-01-25T10:08:43;0.10;;;0.00;;
76393;SDS011;65216;51.090;-115.352;2024-01-25T10:11:12;0.10;;;0.00;;
76393;SDS011;65216;51.090;-115.352;2024-01-25T10:13:45;0.10;;;0.10;;
76393;SDS011;65216;51.090;-115.352;2024-01-25T10:16:20;0.00;;;0.00;;
76393;SDS011;65216;51.090;-115.352;2024-01-25T10:18:48;0.00;;;0.00;;
76393;SDS011;65216;51.090;-115.352;2024-01-25T10:21:15;0.10;;;0.00;;
76393;SDS011;65216;51.090;-115.352;2024-01-25T10:23:47;0.00;;;0.00;;
76393;SDS011;65216;51.090;-115.352;2024-01-25T10:26:16;0.10;;;0.00;;
76393;SDS011;65216;51.090;-115.352;2024-01-25T10:28:50;0.20;;;0.10;;
76393;SDS011;65216;51.090;-115.352;2024-01-25T10:31:23;0.00;;;0.00;;
76393;SDS011;65216;51.090;-115.352;2024-01-25T10:33:53;0.30;;;0.20;;
76393;SDS011;65216;51.090;-115.352;2024-01-25T10:36:24;0.00;;;0.00;;
76393;SDS011;65216;51.090;-115.352;2024-01-25T10:38:54;0.00;;;0.00;;
76393;SDS011;65216;51.090;-115.352;2024-01-25T10:41:23;0.50;;;0.00;;
76393;SDS011;65216;51.090;-115.352;2024-01-25T10:43:51;0.00;;;0.00;;
76393;SDS011;65216;51.090;-115.352;2024-01-25T10:46:19;0.00;;;0.00;;
76393;SDS011;65216;51.090;-115.352;2024-01-25T10:48:46;0.00;;;0.00;;
76393;SDS011;65216;51.090;-115.352;2024-01-25T10:51:16;0.00;;;0.00;;
76393;SDS011;65216;51.090;-115.352;2024-01-25T10:53:47;0.60;;;0.10;;
76393;SDS011;65216;51.090;-115.352;2024-01-25T10:56:15;0.30;;;0.00;;
76393;SDS011;65216;51.090;-115.352;2024-01-25T10:58:43;0.00;;;0.00;;
76393;SDS011;65216;51.090;-115.352;2024-01-25T11:01:11;0.00;;;0.00;;
76393;SDS011;65216;51.090;-115.352;2024-01-25T11:03:41;0.00;;;0.00;;
76393;SDS011;65216;51.090;-115.352;2024-01-25T11:06:12;0.00;;;0.00;;
76393;SDS011;65216;51.090;-115.352;2024-01-25T11:08:40;0.20;;;0.10;;
76393;SDS011;65216;51.090;-115.352;2024-01-25T11:11:10;0.00;;;0.00;;
76393;SDS011;65216;51.090;-115.352;2024-01-25T11:13:40;0.00;;;0.00;;
76393;SDS011;65216;51.090;-115.352;2024-01-25T11:16:21;0.10;;;0.00;;
76393;SDS011;65216;51.090;-115.352;2024-01-25T11:18:56;0.00;;;0.00;;
76393;SDS011;65216;51.090;-115.352;2024-01-25T11:21:43;0.00;;;0.00;;
76393;SDS011;65216;51.090;-115.352;2024-01-25T11:24:21;0.00;;;0.00;;
76393;SDS011;65216;51.090;-115.352;2024-01-25T11:26:51;0.00;;;0.00;;
76393;SDS011;65216;51.090;-115.352;2024-01-25T11:29:22;0.00;;;0.00;;
76393;SDS011;65216;51.090;-115.352;2024-01-25T11:31:51;0.00;;;0.00;;
76393;SDS011;65216;51.090;-115.352;2024-01-25T11:34:18;0.20;;;0.10;;
76393;SDS011;65216;51.090;-115.352;2024-01-25T11:36:47;0.00;;;0.00;;
76393;SDS011;65216;51.090;-115.352;2024-01-25T11:39:16;0.00;;;0.00;;
76393;SDS011;65216;51.090;-115.352;2024-01-25T11:41:44;0.10;;;0.00;;
76393;SDS011;65216;51.090;-115.352;2024-01-25T11:44:13;0.80;;;0.00;;
76393;SDS011;65216;51.090;-115.352;2024-01-25T11:46:41;0.10;;;0.10;;
76393;SDS011;65216;51.090;-115.352;2024-01-25T11:49:08;0.00;;;0.00;;
76393;SDS011;65216;51.090;-115.352;2024-01-25T11:51:35;0.30;;;0.10;;
76393;SDS011;65216;51.090;-115.352;2024-01-25T11:54:02;0.10;;;0.00;;
76393;SDS011;65216;51.090;-115.352;2024-01-25T11:56:37;0.00;;;0.00;;
76393;SDS011;65216;51.090;-115.352;2024-01-25T11:59:08;0.10;;;0.10;;
76393;SDS011;65216;51.090;-115.352;2024-01-25T12:01:36;0.00;;;0.00;;
76393;SDS011;65216;51.090;-115.352;2024-01-25T12:04:04;0.10;;;0.00;;
76393;SDS011;65216;51.090;-115.352;2024-01-25T12:06:31;0.10;;;0.00;;
76393;SDS011;65216;51.090;-115.352;2024-01-25T12:09:10;0.00;;;0.00;;
76393;SDS011;65216;51.090;-115.352;2024-01-25T12:11:41;0.00;;;0.00;;
76393;SDS011;65216;51.090;-115.352;2024-01-25T12:14:09;0.00;;;0.00;;
76393;SDS011;65216;51.090;-115.352;2024-01-25T12:16:36;0.10;;;0.00;;
76393;SDS011;65216;51.090;-115.352;2024-01-25T12:19:03;0.10;;;0.00;;
76393;SDS011;65216;51.090;-115.352;2024-01-25T12:21:33;0.00;;;0.00;;
76393;SDS011;65216;51.090;-115.352;2024-01-25T12:24:00;0.10;;;0.00;;
76393;SDS011;65216;51.090;-115.352;2024-01-25T12:26:28;0.00;;;0.00;;
76393;SDS011;65216;51.090;-115.352;2024-01-25T12:29:03;0.10;;;0.10;;
76393;SDS011;65216;51.090;-115.352;2024-01-25T12:31:31;0.20;;;0.00;;
76393;SDS011;65216;51.090;-115.352;2024-01-25T12:33:59;0.10;;;0.10;;
76393;SDS011;65216;51.090;-115.352;2024-01-25T12:36:27;0.00;;;0.00;;
76393;SDS011;65216;51.090;-115.352;2024-01-25T12:38:53;0.10;;;0.10;;
76393;SDS011;65216;51.090;-115.352;2024-01-25T12:41:20;0.00;;;0.00;;
76393;SDS011;65216;51.090;-115.352;2024-01-25T12:43:48;0.00;;;0.00;;
76393;SDS011;65216;51.090;-115.352;2024-01-25T12:46:15;0.00;;;0.00;;
76393;SDS011;65216;51.090;-115.352;2024-01-25T12:48:41;0.00;;;0.00;;
76393;SDS011;65216;51.090;-115.352;2024-01-25T12:51:08;0.00;;;0.00;;
76393;SDS011;65216;51.090;-115.352;2024-01-25T12:53:38;0.00;;;0.00;;
76393;SDS011;65216;51.090;-115.352;2024-01-25T12:56:05;0.10;;;0.00;;
76393;SDS011;65216;51.090;-115.352;2024-01-25T12:58:32;0.00;;;0.00;;
76393;SDS011;65216;51.090;-115.352;2024-01-25T13:01:02;0.00;;;0.00;;
76393;SDS011;65216;51.090;-115.352;2024-01-25T13:03:29;0.00;;;0.00;;
76393;SDS011;65216;51.090;-115.352;2024-01-25T13:05:56;0.00;;;0.00;;
76393;SDS011;65216;51.090;-115.352;2024-01-25T13:08:22;0.20;;;0.00;;
76393;SDS011;65216;51.090;-115.352;2024-01-25T13:10:50;0.10;;;0.00;;
76393;SDS011;65216;51.090;-115.352;2024-01-25T13:13:16;0.00;;;0.00;;
76393;SDS011;65216;51.090;-115.352;2024-01-25T13:15:43;0.20;;;0.00;;
76393;SDS011;65216;51.090;-115.352;2024-01-25T13:18:11;0.10;;;0.10;;
76393;SDS011;65216;51.090;-115.352;2024-01-25T13:20:40;0.00;;;0.00;;
76393;SDS011;65216;51.090;-115.352;2024-01-25T13:23:08;0.10;;;0.00;;
76393;SDS011;65216;51.090;-115.352;2024-01-25T13:25:34;0.00;;;0.00;;
76393;SDS011;65216;51.090;-115.352;2024-01-25T13:28:01;0.30;;;0.00;;
76393;SDS011;65216;51.090;-115.352;2024-01-25T13:30:28;0.10;;;0.10;;
76393;SDS011;65216;51.090;-115.352;2024-01-25T13:32:57;0.10;;;0.10;;
76393;SDS011;65216;51.090;-115.352;2024-01-25T13:35:25;0.20;;;0.00;;
76393;SDS011;65216;51.090;-115.352;2024-01-25T13:37:52;0.20;;;0.00;;
76393;SDS011;65216;51.090;-115.352;2024-01-25T13:40:19;0.00;;;0.00;;
76393;SDS011;65216;51.090;-115.352;2024-01-25T13:42:46;0.20;;;0.00;;
76393;SDS011;65216;51.090;-115.352;2024-01-25T13:45:12;0.00;;;0.00;;
76393;SDS011;65216;51.090;-115.352;2024-01-25T13:47:40;0.00;;;0.00;;
76393;SDS011;65216;51.090;-115.352;2024-01-25T13:50:09;0.50;;;0.10;;
76393;SDS011;65216;51.090;-115.352;2024-01-25T13:52:36;0.00;;;0.00;;
76393;SDS011;65216;51.090;-115.352;2024-01-25T13:55:03;0.30;;;0.00;;
76393;SDS011;65216;51.090;-115.352;2024-01-25T13:57:30;0.30;;;0.00;;
76393;SDS011;65216;51.090;-115.352;2024-01-25T13:59:57;0.00;;;0.00;;
76393;SDS011;65216;51.090;-115.352;2024-01-25T14:02:24;0.00;;;0.00;;
76393;SDS011;65216;51.090;-115.352;2024-01-25T14:04:50;0.20;;;0.00;;
76393;SDS011;65216;51.090;-115.352;2024-01-25T14:07:17;0.00;;;0.00;;
76393;SDS011;65216;51.090;-115.352;2024-01-25T14:09:46;0.30;;;0.20;;
76393;SDS011;65216;51.090;-115.352;2024-01-25T14:12:13;0.20;;;0.00;;
76393;SDS011;65216;51.090;-115.352;2024-01-25T14:14:40;0.10;;;0.00;;
76393;SDS011;65216;51.090;-115.352;2024-01-25T14:17:07;0.30;;;0.00;;
76393;SDS011;65216;51.090;-115.352;2024-01-25T14:19:34;0.10;;;0.00;;
76393;SDS011;65216;51.090;-115.352;2024-01-25T14:22:01;0.00;;;0.00;;
76393;SDS011;65216;51.090;-115.352;2024-01-25T14:24:28;0.00;;;0.00;;